KDVK

Details ICAO KDVK
Name STUART POWELL FLD
Region United States
Timezone America/New_York (UTC-5.0)
Plans Departing 7
Arriving 4
Stats Elevation 1,022 ft / 312 m (AMSL)
Location 37.578849° -84.770828°
Runways 2
Magnetic Variation 5.424° W
Sunrise 2017-12-11 12:45:27 UTC / 2017-12-11 07:45:27 Local
Sunset 2017-12-11 22:22:20 UTC / 2017-12-11 17:22:20 Local
Advertisement - Login to hide

Runways

ID Width Length Bearing (true) Bearing (mag) Surface Threshold Offset Overrun Length
01 75 ft / 23 m 2,362 ft / 720 m 7.92° 13.34° Asphalt 0 ft / 0 m 0 ft / 0 m
12 75 ft / 23 m 4,995 ft / 1,522 m 121.64° 127.06° Asphalt 0 ft / 0 m 0 ft / 0 m
19 75 ft / 23 m 2,362 ft / 720 m 187.92° 193.34° Asphalt 551 ft / 168 m 0 ft / 0 m
30 75 ft / 23 m 4,995 ft / 1,522 m 301.65° 307.07° Asphalt 0 ft / 0 m 0 ft / 0 m

Map

Weather


0- 5 10 15 20 25 30 35+ Temperature / ° C

Clouds and Precipitation
Forecast for 2017-12-11 12:00 UTC. Updated 18 minutes ago

Ground ~20,000 ft ~40,000 ft Winds

METAR

KDVK 110915Z AUTO 00000KT 10SM CLR M03/M06 A3012 RMK AO2

TAF

Not found

Frequencies

Recorded 128.32 MHz AWOS 3
Approach 120.15 MHz LEXINGTON APP/DEP
Unicom 122.80 MHz CTAF/UNICOM
Warning: Do not use this data for real-world aviation or navigation. No guarantee of current accuracy is given.